Time;durP1;ratioP1;P1;durP2;ratioP2;P2;SDS_P1;SDS_P2;PMS_P1;PMS_P2;Temp;Humidity;BMP_temperature;BMP_pressure;BME280_temperature;BME280_humidity;BME280_pressure;Samples;Min_cycle;Max_cycle;Signal;HPM_P1;HPM_P2
2021/01/31 00:00:22;;;;;;;30.02;24.10;;;27.80;60.20;;;;;;5050609;28;20307;-53
2021/01/31 00:02:52;;;;;;;26.50;23.67;;;27.80;60.00;;;;;;5050729;28;20254;-51
2021/01/31 00:05:24;;;;;;;24.25;21.77;;;27.80;60.20;;;;;;5051132;28;20673;-55
2021/01/31 00:07:55;;;;;;;23.80;21.55;;;27.80;60.20;;;;;;5050279;28;20237;-54
2021/01/31 00:10:28;;;;;;;23.38;21.08;;;27.80;60.10;;;;;;5051258;28;20225;-54
2021/01/31 00:12:59;;;;;;;24.70;22.15;;;27.80;60.20;;;;;;5051232;28;20309;-51
2021/01/31 00:15:31;;;;;;;24.90;22.55;;;27.80;60.20;;;;;;5051350;28;20609;-55
2021/01/31 00:18:02;;;;;;;23.65;21.35;;;27.80;60.30;;;;;;5051195;28;20234;-54
2021/01/31 00:20:34;;;;;;;28.65;22.52;;;27.80;60.30;;;;;;5050956;28;20233;-54
2021/01/31 00:23:05;;;;;;;23.63;21.25;;;27.90;60.40;;;;;;5050887;28;20239;-52
2021/01/31 00:25:36;;;;;;;24.00;21.60;;;27.90;60.40;;;;;;5050748;28;20231;-49
2021/01/31 00:28:07;;;;;;;24.80;22.08;;;27.90;60.40;;;;;;5050394;28;20230;-53
2021/01/31 00:30:37;;;;;;;23.80;21.40;;;27.90;60.40;;;;;;5050080;28;20225;-51
2021/01/31 00:33:08;;;;;;;25.58;22.85;;;27.90;60.40;;;;;;5050488;28;20236;-50
2021/01/31 00:35:40;;;;;;;23.83;21.30;;;27.90;60.40;;;;;;5050629;28;20226;-49
2021/01/31 00:38:11;;;;;;;24.27;21.83;;;27.90;60.30;;;;;;5050483;28;20644;-53
2021/01/31 00:40:41;;;;;;;24.20;21.73;;;28.00;60.30;;;;;;5050348;28;20234;-54
2021/01/31 00:43:12;;;;;;;26.98;24.30;;;28.00;60.30;;;;;;5050383;28;20240;-54
2021/01/31 00:45:42;;;;;;;25.75;23.00;;;28.00;60.20;;;;;;5050129;28;20340;-53
2021/01/31 00:48:13;;;;;;;24.63;22.13;;;28.00;60.20;;;;;;5050266;28;20237;-49
2021/01/31 00:50:45;;;;;;;26.70;24.00;;;28.00;60.10;;;;;;5049994;28;20599;-53
2021/01/31 00:53:16;;;;;;;26.52;23.80;;;28.10;60.10;;;;;;5049679;28;20260;-49
2021/01/31 00:55:47;;;;;;;24.85;22.23;;;28.10;60.10;;;;;;5049332;28;20237;-50
2021/01/31 00:58:17;;;;;;;25.42;22.92;;;28.10;60.10;;;;;;5049251;28;20237;-53
2021/01/31 01:00:49;;;;;;;26.27;23.58;;;28.10;60.10;;;;;;5049014;28;20255;-52
2021/01/31 01:03:19;;;;;;;28.20;25.00;;;28.20;60.00;;;;;;5049522;28;20295;-50
2021/01/31 01:05:51;;;;;;;25.92;23.25;;;28.20;59.80;;;;;;5048996;28;20230;-49
2021/01/31 01:08:22;;;;;;;27.85;24.88;;;28.20;59.80;;;;;;5048974;28;20234;-51
2021/01/31 01:10:52;;;;;;;26.55;23.75;;;28.30;59.80;;;;;;5048806;28;20686;-50
2021/01/31 01:13:23;;;;;;;25.20;22.65;;;28.30;59.70;;;;;;5048928;28;20229;-49
2021/01/31 01:15:54;;;;;;;27.50;23.65;;;28.30;59.80;;;;;;5049031;28;20244;-49
2021/01/31 01:18:25;;;;;;;26.25;23.27;;;28.30;59.70;;;;;;5047936;28;20238;-51
2021/01/31 01:20:57;;;;;;;28.05;24.08;;;28.40;59.70;;;;;;5048674;28;20233;-51
2021/01/31 01:23:27;;;;;;;25.02;22.17;;;28.40;59.50;;;;;;5048797;28;20308;-53
2021/01/31 01:25:57;;;;;;;24.45;21.92;;;28.50;59.60;;;;;;5048763;28;20226;-50
2021/01/31 01:28:28;;;;;;;25.35;22.73;;;28.50;59.60;;;;;;5048667;28;20222;-50
2021/01/31 01:30:58;;;;;;;25.40;22.70;;;28.60;59.50;;;;;;5048273;28;20237;-50
2021/01/31 01:33:29;;;;;;;25.15;22.58;;;28.60;59.40;;;;;;5047938;28;20287;-54
2021/01/31 01:36:01;;;;;;;25.63;23.05;;;28.60;59.30;;;;;;5048609;28;20291;-53
2021/01/31 01:38:32;;;;;;;26.08;23.20;;;28.70;59.40;;;;;;5048200;28;20226;-55
2021/01/31 01:41:02;;;;;;;25.33;22.45;;;28.70;59.30;;;;;;5048339;28;20238;-56
2021/01/31 01:43:33;;;;;;;26.65;23.63;;;28.80;59.10;;;;;;5048256;28;20236;-55
2021/01/31 01:46:27;;;;;;;26.17;23.58;;;28.80;59.00;;;;;;5048249;28;20238;-54
2021/01/31 01:49:02;;;;;;;25.17;22.48;;;28.90;58.60;;;;;;5048877;28;20261;-56
2021/01/31 01:51:37;;;;;;;25.85;21.85;;;28.90;58.90;;;;;;5047969;28;20283;-55
2021/01/31 01:54:09;;;;;;;23.75;21.48;;;29.00;58.80;;;;;;5048352;28;20237;-53
2021/01/31 01:56:41;;;;;;;24.02;21.60;;;29.00;58.80;;;;;;5048440;28;20241;-55
2021/01/31 01:59:11;;;;;;;25.67;22.83;;;29.10;58.70;;;;;;5036153;28;20308;-52
2021/01/31 02:01:44;;;;;;;27.50;24.63;;;29.10;58.50;;;;;;5026691;28;20237;-51
2021/01/31 02:04:15;;;;;;;25.25;22.77;;;29.20;58.20;;;;;;4967600;28;1712446;-53
2021/01/31 02:06:46;;;;;;;23.33;21.02;;;29.20;58.00;;;;;;5028852;28;20284;-55
2021/01/31 02:09:17;;;;;;;25.65;22.90;;;29.30;57.80;;;;;;5028315;28;20241;-52
2021/01/31 02:11:48;;;;;;;24.58;21.75;;;29.30;57.40;;;;;;5028088;28;20234;-56
2021/01/31 02:14:18;;;;;;;22.70;20.25;;;29.40;57.60;;;;;;5027945;28;20580;-56
2021/01/31 02:16:54;;;;;;;22.85;20.63;;;29.40;57.80;;;;;;5027955;28;20244;-53
2021/01/31 02:20:03;;;;;;;23.20;20.90;;;29.50;57.70;;;;;;4966404;28;20692;-55
2021/01/31 02:23:09;;;;;;;20.60;18.55;;;29.60;57.30;;;;;;4957990;28;20243;-51
2021/01/31 02:26:02;;;;;;;21.83;18.92;;;29.60;56.50;;;;;;4851573;29;20231;-54
2021/01/31 02:28:56;;;;;;;19.13;16.98;;;29.70;56.90;;;;;;4904322;29;20668;-52
2021/01/31 02:31:57;;;;;;;17.05;15.30;;;29.70;56.70;;;;;;4869644;29;20243;-55
2021/01/31 02:34:33;;;;;;;22.17;18.02;;;29.80;56.90;;;;;;4832455;29;21326;-53
2021/01/31 02:37:14;;;;;;;18.65;16.75;;;29.90;56.00;;;;;;4807995;29;20319;-55
2021/01/31 02:39:47;;;;;;;19.08;17.17;;;30.00;56.30;;;;;;4814892;29;20244;-56
2021/01/31 02:42:25;;;;;;;20.65;18.40;;;30.10;56.10;;;;;;4815107;29;20790;-55
2021/01/31 02:45:02;;;;;;;19.65;16.55;;;30.10;55.10;;;;;;4869294;29;20247;-54
2021/01/31 02:47:33;;;;;;;18.55;16.65;;;30.20;55.60;;;;;;4870128;29;20617;-54
2021/01/31 02:50:07;;;;;;;16.58;14.93;;;30.20;55.10;;;;;;4905406;29;20601;-56
2021/01/31 02:52:39;;;;;;;18.15;15.35;;;30.30;55.00;;;;;;4945417;29;20241;-54
2021/01/31 02:55:11;;;;;;;21.17;16.40;;;30.40;55.10;;;;;;4965413;28;20242;-54
2021/01/31 02:57:49;;;;;;;19.98;17.90;;;30.50;54.50;;;;;;4984313;28;20279;-55
2021/01/31 03:00:21;;;;;;;16.17;14.60;;;30.50;54.00;;;;;;5020840;28;20273;-53
2021/01/31 03:02:54;;;;;;;17.35;15.55;;;30.60;54.40;;;;;;4964299;28;20248;-51
2021/01/31 03:05:27;;;;;;;18.65;16.67;;;30.70;54.40;;;;;;4964111;28;20232;-53
2021/01/31 03:07:59;;;;;;;16.80;15.05;;;30.70;53.90;;;;;;4964407;28;20294;-54
2021/01/31 03:10:33;;;;;;;16.40;14.82;;;30.80;54.30;;;;;;4963916;28;20315;-53
2021/01/31 03:13:06;;;;;;;17.92;16.00;;;30.90;54.20;;;;;;4925827;29;20628;-50
2021/01/31 03:15:39;;;;;;;17.27;15.57;;;31.00;54.10;;;;;;4925932;29;20322;-51
2021/01/31 03:18:11;;;;;;;16.55;14.90;;;31.00;54.00;;;;;;4925574;29;20234;-51
2021/01/31 03:20:49;;;;;;;18.38;16.23;;;31.10;53.80;;;;;;4925897;29;20868;-52
2021/01/31 03:23:22;;;;;;;16.90;15.20;;;31.20;53.30;;;;;;4924878;29;20253;-54
2021/01/31 03:25:54;;;;;;;17.00;15.30;;;31.20;53.20;;;;;;4926159;29;20383;-50
2021/01/31 03:28:24;;;;;;;17.52;15.73;;;31.40;53.30;;;;;;4925579;29;20242;-55
2021/01/31 03:30:54;;;;;;;17.83;14.80;;;31.40;52.70;;;;;;4888230;29;20246;-52
2021/01/31 03:33:26;;;;;;;16.88;15.13;;;31.50;52.90;;;;;;4900278;29;20747;-51
2021/01/31 03:35:58;;;;;;;18.52;16.23;;;31.60;52.60;;;;;;4945083;28;20237;-51
2021/01/31 03:38:30;;;;;;;18.67;16.83;;;31.70;52.30;;;;;;4945211;29;20233;-52
2021/01/31 03:41:20;;;;;;;19.08;15.88;;;31.80;52.40;;;;;;4920068;29;20671;-55
2021/01/31 03:43:50;;;;;;;17.65;15.95;;;31.80;50.80;;;;;;4919478;29;20241;-54
2021/01/31 03:46:27;;;;;;;17.10;15.32;;;31.90;51.80;;;;;;4931622;29;20241;-50
2021/01/31 03:48:59;;;;;;;19.50;17.52;;;32.00;51.50;;;;;;4931935;29;20237;-55
2021/01/31 03:51:31;;;;;;;18.15;16.45;;;32.00;50.80;;;;;;4931397;29;20643;-55
2021/01/31 03:54:01;;;;;;;18.70;16.50;;;32.10;50.90;;;;;;4931761;29;20250;-53
2021/01/31 03:56:35;;;;;;;16.27;14.70;;;32.10;51.20;;;;;;4967790;28;20252;-54
2021/01/31 03:59:05;;;;;;;17.77;15.43;;;32.20;51.30;;;;;;4969989;28;20275;-53
2021/01/31 04:01:37;;;;;;;17.85;15.95;;;32.30;51.30;;;;;;4969888;28;20252;-52
2021/01/31 04:04:15;;;;;;;17.77;16.17;;;32.40;51.50;;;;;;4969586;28;20243;-55
2021/01/31 04:06:48;;;;;;;18.15;16.35;;;32.40;51.00;;;;;;4969630;28;20236;-51
2021/01/31 04:09:19;;;;;;;20.63;18.60;;;32.50;50.80;;;;;;4969949;28;20258;-51
2021/01/31 04:11:49;;;;;;;19.98;18.02;;;32.60;50.80;;;;;;4987673;28;20235;-53
2021/01/31 04:14:22;;;;;;;20.05;18.05;;;32.70;50.20;;;;;;4950387;28;20775;-53
2021/01/31 04:16:53;;;;;;;18.67;17.00;;;32.70;49.80;;;;;;4893105;29;20243;-53
2021/01/31 04:19:23;;;;;;;19.67;17.67;;;32.80;50.00;;;;;;4893311;29;20728;-51
2021/01/31 04:21:55;;;;;;;19.10;17.30;;;32.90;50.10;;;;;;4893117;29;20235;-49
2021/01/31 04:24:26;;;;;;;20.17;18.13;;;33.00;49.80;;;;;;4893441;29;20287;-54
2021/01/31 04:26:57;;;;;;;20.27;18.38;;;33.10;49.90;;;;;;4893352;29;20336;-56
2021/01/31 04:29:28;;;;;;;20.05;17.92;;;33.20;49.70;;;;;;4893098;29;20236;-55
2021/01/31 04:31:59;;;;;;;19.60;17.55;;;33.20;49.60;;;;;;4893048;29;20235;-52
2021/01/31 04:34:29;;;;;;;19.85;17.67;;;33.30;49.40;;;;;;4893422;29;20235;-54
2021/01/31 04:37:00;;;;;;;20.75;18.88;;;33.30;49.40;;;;;;4893307;29;20704;-54
2021/01/31 04:39:31;;;;;;;23.42;21.13;;;33.50;49.10;;;;;;4935927;28;20249;-53
2021/01/31 04:42:01;;;;;;;23.95;21.73;;;33.50;48.50;;;;;;4950143;28;20237;-55
2021/01/31 04:44:32;;;;;;;20.88;18.80;;;33.60;48.20;;;;;;4891968;29;20286;-50
2021/01/31 04:47:05;;;;;;;22.38;20.27;;;33.60;48.70;;;;;;4898216;29;20249;-51
2021/01/31 04:49:56;;;;;;;22.70;19.73;;;33.70;48.00;;;;;;4873686;29;20292;-50
2021/01/31 04:52:53;;;;;;;21.45;19.30;;;33.80;47.80;;;;;;4873526;29;20833;-50
2021/01/31 04:55:47;;;;;;;21.85;19.65;;;33.90;48.10;;;;;;4867157;29;20405;-56
2021/01/31 04:58:18;;;;;;;23.83;21.60;;;34.00;47.40;;;;;;4873828;29;20240;-52
2021/01/31 05:00:52;;;;;;;23.25;21.05;;;34.10;48.70;;;;;;4873892;29;20660;-55
2021/01/31 05:03:23;;;;;;;23.08;20.88;;;34.10;47.90;;;;;;4864924;29;20244;-55
2021/01/31 05:05:57;;;;;;;24.27;21.98;;;34.20;48.20;;;;;;4873554;29;20394;-55
2021/01/31 05:08:29;;;;;;;28.92;26.13;;;34.20;47.80;;;;;;4873444;29;20741;-53
2021/01/31 05:11:01;;;;;;;30.48;27.63;;;34.40;47.60;;;;;;4873248;29;20247;-54
2021/01/31 05:13:35;;;;;;;27.17;24.77;;;34.40;47.10;;;;;;4873604;29;20240;-52
2021/01/31 05:16:07;;;;;;;25.08;22.88;;;34.50;47.00;;;;;;4895446;29;20238;-56
2021/01/31 05:18:38;;;;;;;23.98;21.77;;;34.60;47.10;;;;;;4892143;29;20242;-51
2021/01/31 05:21:10;;;;;;;25.63;23.25;;;34.70;47.10;;;;;;4932593;28;20239;-54
2021/01/31 05:23:43;;;;;;;25.58;23.13;;;34.70;46.90;;;;;;4971232;28;20306;-51
2021/01/31 05:26:16;;;;;;;27.13;24.52;;;34.80;47.60;;;;;;4990190;28;20688;-55
2021/01/31 05:28:48;;;;;;;28.45;25.98;;;34.80;46.90;;;;;;4990003;28;20259;-55
2021/01/31 05:31:18;;;;;;;29.25;26.35;;;35.00;46.80;;;;;;4989870;28;20266;-51
2021/01/31 05:33:54;;;;;;;27.20;24.75;;;35.00;46.50;;;;;;4989935;28;20240;-51
2021/01/31 05:36:25;;;;;;;27.65;25.15;;;35.10;46.20;;;;;;4990200;28;20242;-50
2021/01/31 05:38:57;;;;;;;28.58;25.95;;;35.10;46.30;;;;;;4990093;28;20236;-51
2021/01/31 05:41:47;;;;;;;27.88;25.40;;;35.20;45.90;;;;;;4989538;28;20690;-51
2021/01/31 05:44:28;;;;;;;27.35;24.95;;;35.30;46.20;;;;;;4984585;28;20232;-51
2021/01/31 05:46:59;;;;;;;25.60;23.20;;;35.30;45.30;;;;;;4929931;29;20281;-52
2021/01/31 05:49:40;;;;;;;27.45;24.90;;;35.40;45.70;;;;;;4944912;28;20315;-55
2021/01/31 05:52:29;;;;;;;26.17;23.85;;;35.40;45.00;;;;;;4945414;29;20819;-54
2021/01/31 05:55:00;;;;;;;27.50;24.95;;;35.50;45.10;;;;;;4945795;29;20273;-55
2021/01/31 05:57:32;;;;;;;31.63;28.67;;;35.60;45.30;;;;;;4945795;29;20643;-53
2021/01/31 06:00:04;;;;;;;34.75;31.65;;;35.60;44.70;;;;;;4946123;29;20241;-53
2021/01/31 06:02:35;;;;;;;35.80;32.58;;;35.70;44.00;;;;;;4907723;29;20237;-53
2021/01/31 06:05:17;;;;;;;33.75;30.75;;;35.70;43.10;;;;;;4926623;29;20262;-52
2021/01/31 06:07:48;;;;;;;31.08;28.27;;;35.70;42.40;;;;;;4927294;29;20273;-53
2021/01/31 06:10:20;;;;;;;31.05;28.08;;;35.70;43.60;;;;;;4926460;29;20389;-52
2021/01/31 06:12:50;;;;;;;30.45;27.85;;;35.70;44.40;;;;;;4954330;28;20227;-51
2021/01/31 06:15:35;;;;;;;29.02;26.48;;;35.70;44.40;;;;;;4972080;28;20236;-52
2021/01/31 06:18:06;;;;;;;29.17;26.48;;;35.80;44.20;;;;;;4982672;28;20668;-51
2021/01/31 06:20:38;;;;;;;29.48;26.77;;;35.80;44.30;;;;;;4984459;28;20282;-53
2021/01/31 06:23:16;;;;;;;30.08;27.30;;;35.90;44.20;;;;;;4945811;28;20280;-55
2021/01/31 06:25:48;;;;;;;30.33;27.23;;;35.90;44.10;;;;;;4915448;29;20246;-55
2021/01/31 06:28:23;;;;;;;30.50;27.73;;;36.00;43.90;;;;;;4907547;29;20379;-55
2021/01/31 06:31:06;;;;;;;33.08;30.15;;;36.10;43.90;;;;;;4913127;29;20245;-52
2021/01/31 06:33:37;;;;;;;30.75;28.13;;;36.20;43.10;;;;;;4943131;28;20330;-52
2021/01/31 06:36:14;;;;;;;30.17;27.63;;;36.20;43.20;;;;;;4964893;28;20268;-52
2021/01/31 06:38:48;;;;;;;29.38;26.85;;;36.30;43.30;;;;;;4964883;28;20234;-53
2021/01/31 06:41:27;;;;;;;31.40;28.00;;;36.30;43.20;;;;;;4964949;28;20235;-50
2021/01/31 06:44:04;;;;;;;27.38;24.48;;;36.40;44.70;;;;;;4960395;28;20237;-51
2021/01/31 06:46:39;;;;;;;27.73;24.95;;;36.30;46.20;;;;;;4944941;28;20264;-50
2021/01/31 06:49:14;;;;;;;25.80;23.08;;;36.20;46.20;;;;;;4981381;28;20247;-50
2021/01/31 06:52:11;;;;;;;23.20;20.92;;;36.10;46.60;;;;;;4995094;28;20237;-50
2021/01/31 06:55:18;;;;;;;22.00;19.70;;;35.90;46.80;;;;;;4985303;28;20243;-53
2021/01/31 06:58:21;;;;;;;22.50;20.20;;;35.80;47.40;;;;;;4956815;28;20243;-51
2021/01/31 07:01:31;;;;;;;25.90;21.73;;;35.70;47.70;;;;;;4961632;28;20294;-52
2021/01/31 07:04:26;;;;;;;21.70;19.42;;;35.60;47.70;;;;;;4974885;28;20258;-51
2021/01/31 07:07:29;;;;;;;22.15;19.85;;;35.50;47.80;;;;;;4982203;28;20231;-53
2021/01/31 07:10:08;;;;;;;23.00;20.67;;;35.40;47.40;;;;;;4980953;28;20239;-49
2021/01/31 07:12:44;;;;;;;22.33;20.02;;;35.30;47.90;;;;;;4868350;29;20326;-50
2021/01/31 07:15:16;;;;;;;23.05;20.73;;;35.20;47.50;;;;;;4850697;29;20254;-51
2021/01/31 07:17:51;;;;;;;22.65;20.55;;;35.20;47.50;;;;;;4852693;29;20264;-51
2021/01/31 07:20:23;;;;;;;26.00;21.65;;;35.10;47.50;;;;;;4854601;29;20632;-51
2021/01/31 07:22:56;;;;;;;37.22;29.20;;;35.10;47.50;;;;;;4848755;29;20232;-49
2021/01/31 07:25:28;;;;;;;28.83;24.42;;;35.00;47.50;;;;;;4835506;29;20281;-53
2021/01/31 07:28:03;;;;;;;23.30;20.65;;;35.00;47.60;;;;;;4833146;29;20249;-52
2021/01/31 07:30:36;;;;;;;25.42;22.98;;;34.90;47.60;;;;;;4835381;29;20324;-51
2021/01/31 07:33:16;;;;;;;23.67;21.27;;;34.80;47.10;;;;;;4835630;29;20836;-53
2021/01/31 07:35:59;;;;;;;22.85;20.65;;;34.70;47.20;;;;;;4835336;29;20248;-54
2021/01/31 07:38:33;;;;;;;26.15;23.27;;;34.60;47.40;;;;;;4871698;29;20250;-51
2021/01/31 07:41:03;;;;;;;24.20;21.65;;;34.60;47.80;;;;;;4883097;29;20227;-50
2021/01/31 07:43:35;;;;;;;20.80;18.70;;;34.60;47.80;;;;;;4882643;29;20783;-51
2021/01/31 07:46:07;;;;;;;21.60;19.42;;;34.60;47.90;;;;;;4881943;29;20236;-51
2021/01/31 07:48:54;;;;;;;21.70;19.38;;;34.60;47.80;;;;;;4938537;28;20251;-54
2021/01/31 07:52:12;;;;;;;25.90;22.75;;;34.60;47.90;;;;;;4939321;28;20247;-50
2021/01/31 07:54:42;;;;;;;27.52;23.42;;;34.70;48.30;;;;;;4938438;28;20237;-53
2021/01/31 07:57:34;;;;;;;24.92;22.52;;;34.70;48.10;;;;;;4976409;28;20246;-55
2021/01/31 08:00:13;;;;;;;25.75;22.83;;;34.70;48.30;;;;;;4940998;28;20300;-55
2021/01/31 08:02:47;;;;;;;20.88;18.70;;;34.70;48.20;;;;;;4948295;28;20225;-51
2021/01/31 08:05:33;;;;;;;25.73;23.02;;;34.70;48.00;;;;;;4948499;28;20237;-55
2021/01/31 08:08:05;;;;;;;42.40;34.40;;;34.80;47.60;;;;;;4909986;29;20715;-50
2021/01/31 08:10:50;;;;;;;26.55;24.05;;;34.70;47.30;;;;;;4909719;29;20257;-52
2021/01/31 08:13:40;;;;;;;23.13;20.48;;;34.70;47.50;;;;;;4921412;29;20238;-52
2021/01/31 08:16:42;;;;;;;32.50;28.23;;;34.70;47.80;;;;;;4928200;29;20241;-51
2021/01/31 08:19:25;;;;;;;32.95;28.98;;;34.70;47.90;;;;;;4929143;29;20721;-51
2021/01/31 08:21:56;;;;;;;26.65;23.23;;;34.70;47.70;;;;;;4929017;29;20857;-50
2021/01/31 08:25:00;;;;;;;27.08;24.27;;;34.60;47.70;;;;;;4954437;28;20258;-52
2021/01/31 08:28:16;;;;;;;26.25;23.60;;;34.50;47.40;;;;;;4986785;28;20334;-49
2021/01/31 08:31:13;;;;;;;28.42;24.58;;;34.60;48.00;;;;;;4928837;29;20242;-54
2021/01/31 08:33:45;;;;;;;29.67;25.67;;;34.60;48.00;;;;;;4966693;28;20760;-53
2021/01/31 08:36:24;;;;;;;24.65;21.98;;;34.60;47.70;;;;;;4966853;28;20239;-54
2021/01/31 08:38:55;;;;;;;23.10;20.95;;;34.60;47.40;;;;;;4987426;28;20758;-52
2021/01/31 08:41:37;;;;;;;25.05;22.48;;;34.60;47.50;;;;;;5005882;28;20231;-55
2021/01/31 08:44:45;;;;;;;24.58;21.98;;;34.70;47.40;;;;;;5005668;28;20237;-54
2021/01/31 08:47:17;;;;;;;23.98;21.67;;;34.70;46.20;;;;;;5004215;28;20239;-50
2021/01/31 08:49:57;;;;;;;49.95;33.72;;;34.70;46.70;;;;;;5004317;28;20720;-54
2021/01/31 08:52:28;;;;;;;39.58;29.75;;;34.70;46.50;;;;;;5005370;28;20239;-53
2021/01/31 08:55:02;;;;;;;25.17;22.60;;;34.70;46.50;;;;;;5005069;28;20285;-52
2021/01/31 08:57:33;;;;;;;67.07;39.85;;;34.70;46.70;;;;;;5003889;28;20317;-51
2021/01/31 09:00:09;;;;;;;30.17;25.63;;;34.70;46.70;;;;;;5005098;28;20293;-52
2021/01/31 09:02:44;;;;;;;31.33;27.10;;;34.80;46.80;;;;;;4946253;28;20742;-50
2021/01/31 09:05:16;;;;;;;40.38;29.60;;;34.90;47.00;;;;;;4960782;28;20235;-51
2021/01/31 09:07:47;;;;;;;29.95;25.98;;;34.90;46.40;;;;;;4965066;28;20232;-52
2021/01/31 09:10:41;;;;;;;24.20;21.73;;;35.00;46.70;;;;;;4948685;28;20832;-54
2021/01/31 09:13:14;;;;;;;27.95;25.00;;;35.00;46.40;;;;;;4946713;28;20251;-51
2021/01/31 09:15:45;;;;;;;32.83;25.92;;;35.00;46.20;;;;;;4889861;29;20239;-54
2021/01/31 09:18:21;;;;;;;27.63;24.85;;;35.10;46.40;;;;;;4889551;29;20747;-51
2021/01/31 09:20:51;;;;;;;43.60;36.80;;;35.20;46.20;;;;;;4889939;29;20230;-55
2021/01/31 09:23:24;;;;;;;28.98;25.25;;;35.20;46.10;;;;;;4889878;29;20366;-51
2021/01/31 09:25:54;;;;;;;27.73;24.83;;;35.20;46.60;;;;;;4889729;29;20243;-51
2021/01/31 09:28:26;;;;;;;29.00;25.95;;;35.30;47.30;;;;;;4889779;29;20241;-56
2021/01/31 09:30:59;;;;;;;24.05;21.52;;;35.20;47.60;;;;;;4889470;29;20267;-55
2021/01/31 09:33:32;;;;;;;23.98;21.67;;;35.20;47.40;;;;;;4932933;28;20247;-55
2021/01/31 09:36:17;;;;;;;25.67;23.17;;;35.20;47.50;;;;;;4964967;28;20242;-52
2021/01/31 09:38:48;;;;;;;25.17;22.60;;;35.10;46.20;;;;;;4964420;28;20236;-55
2021/01/31 09:41:19;;;;;;;23.58;21.08;;;35.10;47.60;;;;;;4962859;28;20228;-56
2021/01/31 09:43:51;;;;;;;27.67;24.80;;;35.00;47.80;;;;;;4964914;28;20287;-52
2021/01/31 09:46:24;;;;;;;33.75;30.35;;;35.00;48.10;;;;;;4926854;28;20236;-53
2021/01/31 09:49:03;;;;;;;27.17;24.52;;;35.00;47.80;;;;;;4964058;28;20233;-52
2021/01/31 09:51:34;;;;;;;26.48;23.77;;;34.90;47.90;;;;;;4955992;28;20940;-51
2021/01/31 09:54:17;;;;;;;23.92;21.20;;;34.90;48.30;;;;;;4959397;28;20293;-51
2021/01/31 09:56:48;;;;;;;21.15;18.95;;;34.80;48.20;;;;;;4949751;28;20237;-52
2021/01/31 09:59:24;;;;;;;25.25;22.75;;;34.80;47.70;;;;;;4947777;28;20233;-51
2021/01/31 10:01:55;;;;;;;24.52;21.90;;;34.70;46.50;;;;;;4964154;28;20248;-50
2021/01/31 10:04:27;;;;;;;24.67;21.67;;;34.80;46.70;;;;;;4907957;29;20250;-53
2021/01/31 10:07:01;;;;;;;24.40;22.00;;;34.80;46.60;;;;;;4907898;29;20242;-51
2021/01/31 10:09:32;;;;;;;24.15;21.38;;;34.70;46.30;;;;;;4907072;29;20313;-52
2021/01/31 10:12:24;;;;;;;24.98;22.58;;;34.70;46.30;;;;;;4907478;29;20241;-50
2021/01/31 10:14:56;;;;;;;22.75;20.50;;;34.70;45.80;;;;;;4906480;29;20809;-50
2021/01/31 10:17:43;;;;;;;29.23;25.80;;;34.70;46.10;;;;;;4927223;28;20237;-53
2021/01/31 10:20:35;;;;;;;25.48;22.83;;;34.70;45.50;;;;;;4960498;28;20681;-55
2021/01/31 10:23:12;;;;;;;28.73;25.73;;;34.70;45.70;;;;;;4962953;28;20252;-52
2021/01/31 10:25:44;;;;;;;25.02;22.45;;;34.60;46.10;;;;;;4962569;28;20234;-54
2021/01/31 10:28:17;;;;;;;27.75;25.15;;;34.60;46.30;;;;;;4964275;28;20667;-54
2021/01/31 10:30:49;;;;;;;29.90;26.85;;;34.70;46.00;;;;;;4963040;28;20248;-55
2021/01/31 10:33:42;;;;;;;27.90;24.90;;;34.70;45.90;;;;;;4964388;28;20372;-55
2021/01/31 10:36:41;;;;;;;25.17;22.83;;;34.80;46.10;;;;;;5013940;28;20231;-53
2021/01/31 10:39:27;;;;;;;26.65;24.15;;;34.90;46.40;;;;;;4981894;28;20310;-48
2021/01/31 10:41:59;;;;;;;26.88;24.17;;;35.00;46.30;;;;;;5026595;28;20234;-51
2021/01/31 10:44:30;;;;;;;25.58;23.27;;;35.00;46.20;;;;;;5026166;28;20230;-54
2021/01/31 10:47:01;;;;;;;24.45;22.25;;;35.10;46.00;;;;;;5026047;28;20287;-50
2021/01/31 10:49:31;;;;;;;27.42;24.75;;;35.10;46.10;;;;;;5025576;28;20303;-54
2021/01/31 10:52:02;;;;;;;26.02;23.52;;;35.20;45.40;;;;;;5026244;28;20234;-51
2021/01/31 10:54:33;;;;;;;25.60;23.30;;;35.20;45.30;;;;;;4968112;28;20763;-54
2021/01/31 10:57:03;;;;;;;23.80;21.55;;;35.20;45.00;;;;;;4962765;28;20241;-50
2021/01/31 10:59:33;;;;;;;26.98;24.55;;;35.10;44.90;;;;;;4957902;28;20375;-50
2021/01/31 11:02:04;;;;;;;27.85;25.08;;;35.00;44.70;;;;;;4968352;28;20238;-51
2021/01/31 11:04:35;;;;;;;30.38;27.27;;;35.00;44.40;;;;;;4968218;28;20260;-53
2021/01/31 11:07:06;;;;;;;27.48;24.73;;;34.90;44.50;;;;;;4968343;28;20240;-54
2021/01/31 11:09:37;;;;;;;27.50;24.77;;;34.70;44.70;;;;;;4958820;28;20704;-54
2021/01/31 11:12:08;;;;;;;25.10;22.45;;;34.60;44.80;;;;;;4968126;28;20247;-55
2021/01/31 11:14:39;;;;;;;24.90;22.35;;;34.50;45.20;;;;;;4968279;28;20351;-54
2021/01/31 11:17:09;;;;;;;26.98;24.17;;;34.40;45.60;;;;;;4968853;28;20238;-50
2021/01/31 11:19:39;;;;;;;27.65;24.88;;;34.30;46.00;;;;;;4955693;28;20605;-53
2021/01/31 11:22:11;;;;;;;26.35;23.58;;;34.20;46.60;;;;;;4948960;28;20251;-53
2021/01/31 11:24:42;;;;;;;30.92;25.25;;;34.00;46.90;;;;;;4957010;28;20275;-53
2021/01/31 11:27:13;;;;;;;27.95;25.10;;;33.90;47.20;;;;;;5008798;28;20238;-54
2021/01/31 11:29:43;;;;;;;35.90;31.30;;;33.80;47.70;;;;;;5008710;28;20235;-51
2021/01/31 11:32:14;;;;;;;34.90;30.70;;;33.60;48.10;;;;;;5014032;28;20230;-52
2021/01/31 11:34:45;;;;;;;30.38;27.17;;;33.50;48.50;;;;;;5024644;28;20706;-53
2021/01/31 11:37:17;;;;;;;28.27;25.35;;;33.40;48.80;;;;;;5022767;28;20293;-52
2021/01/31 11:39:47;;;;;;;27.23;24.50;;;33.40;49.20;;;;;;5023464;28;20239;-52
2021/01/31 11:42:19;;;;;;;25.63;23.10;;;33.30;49.30;;;;;;5027216;28;20226;-53
2021/01/31 11:44:49;;;;;;;24.40;22.08;;;33.20;49.50;;;;;;5033146;28;20230;-53
2021/01/31 11:47:20;;;;;;;22.10;19.67;;;33.20;49.90;;;;;;5032983;28;20226;-54
2021/01/31 11:49:52;;;;;;;22.92;20.65;;;33.10;50.00;;;;;;5030719;28;20736;-54
2021/01/31 11:52:23;;;;;;;22.77;20.55;;;33.00;50.30;;;;;;5022664;28;20230;-51
2021/01/31 11:54:54;;;;;;;23.23;20.95;;;33.00;50.60;;;;;;5028984;28;20242;-49
2021/01/31 11:57:25;;;;;;;22.23;19.88;;;33.00;50.90;;;;;;5026067;28;20237;-52
2021/01/31 11:59:56;;;;;;;22.83;20.58;;;32.90;51.10;;;;;;5034340;28;20687;-52
2021/01/31 12:02:27;;;;;;;21.58;19.30;;;32.90;51.40;;;;;;5021872;28;20238;-52
2021/01/31 12:04:58;;;;;;;22.80;20.40;;;32.80;51.60;;;;;;5024890;28;20760;-53
2021/01/31 12:07:29;;;;;;;23.48;21.10;;;32.80;51.90;;;;;;5027916;28;20789;-53
2021/01/31 12:10:00;;;;;;;23.77;21.45;;;32.80;52.20;;;;;;5027561;28;20592;-53
2021/01/31 12:12:31;;;;;;;23.33;20.92;;;32.70;52.80;;;;;;5027740;28;20234;-51
2021/01/31 12:15:01;;;;;;;23.98;21.58;;;32.60;52.50;;;;;;5024924;28;20235;-50
2021/01/31 12:17:32;;;;;;;24.85;22.55;;;32.60;52.70;;;;;;5027128;28;20223;-50
2021/01/31 12:20:02;;;;;;;23.02;20.73;;;32.60;52.80;;;;;;5025336;28;20643;-53
2021/01/31 12:22:34;;;;;;;24.63;22.10;;;32.50;53.00;;;;;;5027768;28;20342;-53
2021/01/31 12:25:05;;;;;;;23.02;20.83;;;32.50;53.40;;;;;;5025752;28;20293;-53
2021/01/31 12:27:36;;;;;;;24.67;22.05;;;32.40;53.40;;;;;;5027818;28;20268;-55
2021/01/31 12:30:07;;;;;;;24.88;22.38;;;32.40;53.60;;;;;;5025799;28;20702;-53
2021/01/31 12:32:39;;;;;;;26.67;23.70;;;32.30;53.80;;;;;;5027565;28;20318;-51
2021/01/31 12:35:10;;;;;;;30.02;24.88;;;32.30;54.00;;;;;;5028042;28;20242;-52
2021/01/31 12:37:42;;;;;;;26.88;24.17;;;32.20;54.10;;;;;;5028175;28;20231;-51
2021/01/31 12:40:15;;;;;;;27.80;24.77;;;32.20;54.10;;;;;;5027986;28;20604;-54
2021/01/31 12:42:46;;;;;;;25.88;23.10;;;32.20;54.10;;;;;;5028686;28;20239;-53
2021/01/31 12:45:17;;;;;;;25.48;22.77;;;32.10;54.20;;;;;;5027969;28;20249;-54
2021/01/31 12:47:48;;;;;;;25.17;22.55;;;32.10;54.30;;;;;;5027363;28;20635;-53
2021/01/31 12:50:19;;;;;;;27.67;23.45;;;32.10;54.40;;;;;;5000321;28;20238;-52
2021/01/31 12:52:51;;;;;;;26.23;23.40;;;32.00;54.50;;;;;;5027597;28;20269;-52
2021/01/31 12:55:22;;;;;;;27.83;24.85;;;31.90;54.60;;;;;;5027647;28;20273;-52
2021/01/31 12:57:52;;;;;;;25.48;22.92;;;31.90;54.80;;;;;;5027860;28;20333;-54
2021/01/31 13:00:24;;;;;;;25.67;23.13;;;31.90;55.00;;;;;;5025382;28;20234;-52
2021/01/31 13:02:54;;;;;;;24.92;22.42;;;31.80;55.00;;;;;;5026819;28;20261;-52
2021/01/31 13:05:30;;;;;;;22.80;20.58;;;31.80;55.10;;;;;;5018223;28;20242;-52